createdAt,value
2017-08-02T00:00:26.256Z,95.02
2017-08-02T00:01:27.005Z,95.4
2017-08-02T00:02:26.970Z,95.79
2017-08-02T00:03:26.702Z,95.79
2017-08-02T00:04:27.393Z,95.89
2017-08-02T00:05:27.103Z,96.46
2017-08-02T00:06:27.428Z,96.08
2017-08-02T00:07:27.465Z,95.69
2017-08-02T00:08:27.500Z,95.31
2017-08-02T00:09:27.637Z,95.31
2017-08-02T00:10:27.574Z,94.82
2017-08-02T00:11:27.614Z,94.54
2017-08-02T00:12:27.653Z,94.82
2017-08-02T00:13:28.008Z,94.44
2017-08-02T00:14:28.367Z,95.89
2017-08-02T00:15:28.398Z,96.56
2017-08-02T00:16:28.107Z,96.32
2017-08-02T00:17:28.770Z,97.09
2017-08-02T00:18:28.800Z,96.8
2017-08-02T00:19:28.837Z,96.61
2017-08-02T00:20:28.876Z,96.7
2017-08-02T00:21:29.198Z,96.51
2017-08-02T00:22:29.238Z,96.61
2017-08-02T00:23:29.274Z,96.22
2017-08-02T00:24:29.307Z,95.94
2017-08-02T00:25:29.704Z,95.55
2017-08-02T00:26:29.740Z,95.36
2017-08-02T00:27:29.777Z,94.97
2017-08-02T00:28:29.819Z,96.42
2017-08-02T00:29:29.856Z,96.03
2017-08-02T00:30:29.575Z,97.09
2017-08-02T00:31:30.182Z,96.42
2017-08-02T00:32:30.216Z,97.47
2017-08-02T00:33:30.253Z,97.67
2017-08-02T00:34:30.290Z,97.57
2017-08-02T00:35:30.327Z,97.47
2017-08-02T00:36:30.369Z,97.19
2017-08-02T00:37:30.399Z,97.57
2017-08-02T00:38:30.461Z,98.24
2017-08-02T00:39:30.472Z,98.72
2017-08-02T00:40:30.515Z,98.82
2017-08-02T00:41:30.553Z,99.02
2017-08-02T00:42:30.588Z,98.44
2017-08-02T00:43:30.631Z,99.02
2017-08-02T00:44:30.661Z,99.3
2017-08-02T00:45:30.707Z,97.96
2017-08-02T00:46:30.736Z,98.63
2017-08-02T00:47:30.797Z,98
2017-08-02T00:48:30.813Z,97.96
2017-08-02T00:49:30.866Z,98.82
2017-08-02T00:50:30.842Z,98.1
2017-08-02T00:51:31.227Z,99.26
2017-08-02T00:52:31.239Z,99.5
2017-08-02T00:53:31.259Z,98.92
2017-08-02T00:54:31.621Z,98.54
2017-08-02T00:55:31.661Z,97.86
2017-08-02T00:56:31.690Z,97.96
2017-08-02T00:57:31.732Z,97.47
2017-08-02T00:58:31.773Z,98.82
2017-08-02T00:59:31.498Z,99.21
2017-08-02T01:00:32.164Z,98.34
2017-08-02T01:01:32.208Z,98.29
2017-08-02T01:02:32.237Z,97.42
2017-08-02T01:03:31.927Z,97.62
2017-08-02T01:04:32.287Z,97.47
2017-08-02T01:05:31.998Z,99.06
2017-08-02T01:06:32.035Z,98.58
2017-08-02T01:07:32.397Z,98.58
2017-08-02T01:08:32.438Z,98.87
2017-08-02T01:09:32.472Z,99.06
2017-08-02T01:10:32.184Z,98.29
2017-08-02T01:11:32.547Z,97.91
2017-08-02T01:12:32.579Z,97.33
2017-08-02T01:13:32.667Z,97.33
2017-08-02T01:14:32.330Z,98.1
2017-08-02T01:15:33.087Z,97.72
2017-08-02T01:16:32.796Z,97.24
2017-08-02T01:17:33.472Z,97.42
2017-08-02T01:18:33.483Z,99.99
2017-08-02T01:19:33.523Z,99.99
2017-08-02T01:20:33.564Z,99.99
2017-08-02T01:21:33.596Z,99.99
2017-08-02T01:22:33.633Z,99.99
2017-08-02T01:23:33.338Z,99.99
2017-08-02T01:24:33.378Z,99.99
2017-08-02T01:25:34.031Z,99.99
2017-08-02T01:26:34.065Z,99.99
2017-08-02T01:27:34.133Z,99.99
2017-08-02T01:28:34.141Z,99.99
2017-08-02T01:29:34.170Z,99.99
2017-08-02T01:30:34.217Z,99.93
2017-08-02T01:31:34.247Z,99.4
2017-08-02T01:32:34.286Z,99.26
2017-08-02T01:33:34.930Z,99.21
2017-08-02T01:34:34.965Z,98.72
2017-08-02T01:35:35.001Z,99.21
2017-08-02T01:36:35.045Z,99.11
2017-08-02T01:37:35.074Z,98.92
2017-08-02T01:38:34.828Z,99.74
2017-08-02T01:39:34.841Z,99.11
2017-08-02T01:40:35.183Z,99.49
2017-08-02T01:41:35.249Z,99.3
2017-08-02T01:42:35.275Z,99.99
2017-08-02T01:43:35.322Z,99.99
2017-08-02T01:44:35.679Z,99.99
2017-08-02T01:45:35.719Z,99.99
2017-08-02T01:46:35.753Z,99.99
2017-08-02T01:47:35.780Z,99.99
2017-08-02T01:48:36.111Z,99.99
2017-08-02T01:49:36.145Z,99.99
2017-08-02T01:50:36.495Z,99.99
2017-08-02T01:51:36.848Z,99.99
2017-08-02T01:52:36.906Z,99.99
2017-08-02T01:53:36.946Z,99.99
2017-08-02T01:54:36.962Z,99.99
2017-08-02T01:55:36.669Z,99.99
2017-08-02T01:56:37.036Z,99.99
2017-08-02T01:57:37.074Z,99.99
2017-08-02T01:58:37.111Z,99.99
2017-08-02T01:59:37.143Z,99.99
2017-08-02T02:00:37.275Z,99.99
2017-08-02T02:01:37.245Z,99.99
2017-08-02T02:02:37.275Z,99.99
2017-08-02T02:03:37.290Z,99.99
2017-08-02T02:04:37.330Z,99.99
2017-08-02T02:05:37.387Z,99.99
2017-08-02T02:06:37.399Z,99.99
2017-08-02T02:07:37.440Z,99.99
2017-08-02T02:08:37.468Z,99.99
2017-08-02T02:09:37.535Z,99.99
2017-08-02T02:10:37.218Z,99.99
2017-08-02T02:11:37.876Z,99.99
2017-08-02T02:12:37.928Z,99.99
2017-08-02T02:13:37.977Z,99.99
2017-08-02T02:14:37.987Z,99.99
2017-08-02T02:15:38.030Z,99.99
2017-08-02T02:16:38.059Z,99.99
2017-08-02T02:17:38.099Z,99.83
2017-08-02T02:18:38.137Z,99.99
2017-08-02T02:19:38.169Z,99.83
2017-08-02T02:20:38.202Z,99.98
2017-08-02T02:21:38.248Z,99.3
2017-08-02T02:22:38.285Z,99.4
2017-08-02T02:23:38.315Z,99.35
2017-08-02T02:24:38.356Z,99.98
2017-08-02T02:25:38.364Z,99.73
2017-08-02T02:26:38.729Z,99.99
2017-08-02T02:27:39.059Z,99.99
2017-08-02T02:28:39.093Z,99.99
2017-08-02T02:29:39.153Z,99.99
2017-08-02T02:30:39.158Z,99.93
2017-08-02T02:31:39.194Z,99.99
2017-08-02T02:32:39.233Z,99.99
2017-08-02T02:33:39.277Z,99.99
2017-08-02T02:34:38.980Z,99.99
2017-08-02T02:35:39.342Z,99.99
2017-08-02T02:36:39.677Z,99.99
2017-08-02T02:37:39.692Z,99.99
2017-08-02T02:38:39.405Z,99.99
2017-08-02T02:39:40.050Z,99.99
2017-08-02T02:40:39.759Z,99.99
2017-08-02T02:41:40.130Z,99.99
2017-08-02T02:42:40.163Z,99.99
2017-08-02T02:43:39.864Z,99.99
2017-08-02T02:44:40.174Z,99.99
2017-08-02T02:45:40.550Z,99.99
2017-08-02T02:46:40.569Z,99.99
2017-08-02T02:47:40.618Z,99.99
2017-08-02T02:48:40.631Z,99.99
2017-08-02T02:49:40.658Z,99.99
2017-08-02T02:50:40.706Z,99.99
2017-08-02T02:51:40.744Z,99.99
2017-08-02T02:52:40.772Z,99.99
2017-08-02T02:53:40.481Z,99.99
2017-08-02T02:54:40.859Z,99.99
2017-08-02T02:55:40.878Z,99.99
2017-08-02T02:56:40.919Z,99.99
2017-08-02T02:57:41.259Z,99.99
2017-08-02T02:58:41.288Z,99.99
2017-08-02T02:59:41.323Z,99.99
2017-08-02T03:00:41.363Z,99.99
2017-08-02T03:01:41.423Z,99.99
2017-08-02T03:02:41.442Z,99.99
2017-08-02T03:03:41.473Z,99.99
2017-08-02T03:04:41.530Z,99.99
2017-08-02T03:05:41.243Z,99.99
2017-08-02T03:06:41.903Z,99.99
2017-08-02T03:07:41.940Z,99.99
2017-08-02T03:08:41.670Z,99.99
2017-08-02T03:09:42.035Z,99.99
2017-08-02T03:10:42.014Z,99.99
2017-08-02T03:11:42.375Z,99.99
2017-08-02T03:12:42.089Z,99.99
2017-08-02T03:13:42.438Z,99.99
2017-08-02T03:14:42.778Z,99.99
2017-08-02T03:15:42.822Z,99.99
2017-08-02T03:16:42.854Z,99.99
2017-08-02T03:17:42.894Z,99.99
2017-08-02T03:18:42.952Z,99.99
2017-08-02T03:19:42.971Z,99.99
2017-08-02T03:20:43.327Z,99.99
2017-08-02T03:21:43.355Z,99.99
2017-08-02T03:22:43.392Z,99.99
2017-08-02T03:23:43.411Z,99.99
2017-08-02T03:24:44.041Z,99.99
2017-08-02T03:25:44.145Z,99.99
2017-08-02T03:26:44.135Z,99.99
2017-08-02T03:27:43.828Z,99.99
2017-08-02T03:28:44.232Z,99.99
2017-08-02T03:29:43.890Z,99.99
2017-08-02T03:30:44.279Z,99.99
2017-08-02T03:31:44.290Z,99.99
2017-08-02T03:32:44.335Z,99.99
2017-08-02T03:33:44.365Z,99.99
2017-08-02T03:34:44.425Z,99.99
2017-08-02T03:35:44.151Z,99.99
2017-08-02T03:36:44.768Z,99.99
2017-08-02T03:37:44.829Z,99.99
2017-08-02T03:38:44.839Z,99.99
2017-08-02T03:39:44.876Z,99.99
2017-08-02T03:40:44.914Z,99.99
2017-08-02T03:41:44.933Z,99.99
2017-08-02T03:42:45.592Z,99.99
2017-08-02T03:43:45.617Z,99.99
2017-08-02T03:44:45.963Z,99.99
2017-08-02T03:45:46.020Z,99.99
2017-08-02T03:46:46.054Z,99.99
2017-08-02T03:47:46.068Z,99.99
2017-08-02T03:48:46.131Z,99.99
2017-08-02T03:49:46.144Z,99.99
2017-08-02T03:50:46.180Z,99.99
2017-08-02T03:51:46.216Z,99.99
2017-08-02T03:52:46.255Z,99.99
2017-08-02T03:53:46.289Z,99.99
2017-08-02T03:54:46.328Z,99.99
2017-08-02T03:55:46.355Z,99.99
2017-08-02T03:56:46.092Z,99.99
2017-08-02T03:57:46.432Z,99.99
2017-08-02T03:58:46.464Z,99.99
2017-08-02T03:59:46.181Z,99.99
2017-08-02T04:00:46.238Z,99.99
2017-08-02T04:01:46.666Z,99.99
2017-08-02T04:02:46.640Z,99.99
2017-08-02T04:03:46.670Z,99.99
2017-08-02T04:04:46.707Z,99.99
2017-08-02T04:05:46.748Z,99.99
2017-08-02T04:06:46.783Z,99.99
2017-08-02T04:07:46.816Z,99.99
2017-08-02T04:08:46.854Z,99.99
2017-08-02T04:09:46.888Z,99.99
2017-08-02T04:10:46.596Z,99.99
2017-08-02T04:11:47.345Z,99.99
2017-08-02T04:12:47.378Z,99.99
2017-08-02T04:13:47.414Z,99.99
2017-08-02T04:14:47.187Z,99.99
2017-08-02T04:15:47.552Z,99.99
2017-08-02T04:16:47.257Z,99.99
2017-08-02T04:17:47.624Z,99.99
2017-08-02T04:18:47.659Z,99.99
2017-08-02T04:19:47.692Z,99.99
2017-08-02T04:20:47.731Z,99.99
2017-08-02T04:21:48.162Z,99.99
2017-08-02T04:22:48.274Z,99.99
2017-08-02T04:23:49.026Z,99.99
2017-08-02T04:24:49.433Z,99.99
2017-08-02T04:25:49.464Z,99.99
2017-08-02T04:26:49.173Z,99.99
2017-08-02T04:27:49.613Z,99.99
2017-08-02T04:28:49.660Z,99.99
2017-08-02T04:29:49.679Z,99.99
2017-08-02T04:30:49.716Z,99.99
2017-08-02T04:31:49.435Z,99.99
2017-08-02T04:32:49.790Z,99.99
2017-08-02T04:33:49.502Z,99.99
2017-08-02T04:34:49.864Z,99.99
2017-08-02T04:35:49.575Z,99.99
2017-08-02T04:36:49.936Z,99.99
2017-08-02T04:37:49.973Z,99.99
2017-08-02T04:38:50.403Z,99.99
2017-08-02T04:39:50.444Z,99.99
2017-08-02T04:40:50.475Z,99.99
2017-08-02T04:41:50.517Z,99.99
2017-08-02T04:42:50.547Z,99.99
2017-08-02T04:43:50.585Z,99.99
2017-08-02T04:44:50.621Z,99.99
2017-08-02T04:45:50.664Z,99.99
2017-08-02T04:46:50.699Z,99.99
2017-08-02T04:47:51.146Z,99.99
2017-08-02T04:48:51.584Z,99.99
2017-08-02T04:49:52.014Z,99.99
2017-08-02T04:50:52.056Z,99.99
2017-08-02T04:51:52.095Z,99.99
2017-08-02T04:52:52.122Z,99.99
2017-08-02T04:53:52.162Z,99.99
2017-08-02T04:54:52.194Z,99.99
2017-08-02T04:55:52.233Z,99.99
2017-08-02T04:56:52.340Z,99.99
2017-08-02T04:57:52.376Z,99.99
2017-08-02T04:58:52.754Z,99.99
2017-08-02T04:59:52.451Z,99.99
2017-08-02T05:00:52.499Z,99.99
2017-08-02T05:01:52.967Z,99.99
2017-08-02T05:02:52.921Z,99.99
2017-08-02T05:03:52.925Z,99.99
2017-08-02T05:04:52.965Z,99.99
2017-08-02T05:05:53.005Z,99.99
2017-08-02T05:06:53.039Z,99.99
2017-08-02T05:07:52.741Z,99.99
2017-08-02T05:08:53.489Z,99.99
2017-08-02T05:09:53.585Z,99.99
2017-08-02T05:10:53.945Z,99.99
2017-08-02T05:11:53.982Z,99.99
2017-08-02T05:12:54.100Z,99.99
2017-08-02T05:13:53.799Z,99.99
2017-08-02T05:14:54.542Z,99.99
2017-08-02T05:15:54.587Z,99.99
2017-08-02T05:16:54.612Z,99.99
2017-08-02T05:17:54.653Z,99.99
2017-08-02T05:18:54.694Z,99.99
2017-08-02T05:19:54.740Z,99.99
2017-08-02T05:20:54.765Z,99.99
2017-08-02T05:21:54.853Z,99.99
2017-08-02T05:22:55.212Z,99.99
2017-08-02T05:23:55.255Z,99.99
2017-08-02T05:24:55.299Z,99.99
2017-08-02T05:25:55.070Z,99.99
2017-08-02T05:26:55.516Z,99.84
2017-08-02T05:27:55.550Z,99.74
2017-08-02T05:28:55.605Z,98.97
2017-08-02T05:29:55.649Z,98.87
2017-08-02T05:30:55.987Z,97.96
2017-08-02T05:31:55.707Z,97.96
2017-08-02T05:32:55.761Z,96.75
2017-08-02T05:33:55.825Z,95.25
2017-08-02T05:34:55.817Z,93.95
2017-08-02T05:35:55.850Z,92.93
2017-08-02T05:36:55.564Z,92.16
2017-08-02T05:37:55.974Z,91.48
2017-08-02T05:38:56.719Z,91.48
2017-08-02T05:39:56.767Z,91.96
2017-08-02T05:40:56.474Z,91.77
2017-08-02T05:41:56.846Z,91.43
2017-08-02T05:42:56.547Z,91.67
2017-08-02T05:43:56.589Z,90.99
2017-08-02T05:44:57.068Z,90.9
2017-08-02T05:45:56.784Z,90.46
2017-08-02T05:46:56.819Z,89.69
2017-08-02T05:47:56.863Z,89.05
2017-08-02T05:48:56.891Z,88.67
2017-08-02T05:49:57.347Z,87.89
2017-08-02T05:50:57.389Z,87.6
2017-08-02T05:51:57.426Z,87.89
2017-08-02T05:52:57.138Z,88.28
2017-08-02T05:53:57.508Z,87.99
2017-08-02T05:54:57.214Z,88.57
2017-08-02T05:55:57.257Z,88.76
2017-08-02T05:56:58.026Z,88.57
2017-08-02T05:57:58.070Z,88.57
2017-08-02T05:58:58.100Z,88.57
2017-08-02T05:59:58.134Z,88.67
2017-08-02T06:00:58.189Z,88.28
2017-08-02T06:01:58.271Z,88.03
2017-08-02T06:02:58.260Z,87.06
2017-08-02T06:03:58.702Z,86.68
2017-08-02T06:04:59.129Z,86.77
2017-08-02T06:05:58.830Z,86.43
2017-08-02T06:06:59.209Z,86.04
2017-08-02T06:07:59.242Z,85.99
2017-08-02T06:08:59.290Z,85.21
2017-08-02T06:09:59.324Z,84.28
2017-08-02T06:10:59.362Z,84.38
2017-08-02T06:11:59.073Z,83.89
2017-08-02T06:12:59.831Z,82.87
2017-08-02T06:13:59.877Z,82.28
2017-08-02T06:14:59.934Z,81.8
2017-08-02T06:15:59.949Z,81.45
2017-08-02T06:16:59.993Z,80.77
2017-08-02T06:18:00.029Z,80.23
2017-08-02T06:19:00.067Z,79.94
2017-08-02T06:19:59.783Z,80.13
2017-08-02T06:20:59.959Z,80.68
2017-08-02T06:22:00.630Z,80.96
2017-08-02T06:23:01.134Z,81.26
2017-08-02T06:24:01.157Z,80.29
2017-08-02T06:25:01.197Z,79.25
2017-08-02T06:26:00.909Z,77.1
2017-08-02T06:27:01.270Z,74.68
2017-08-02T06:28:01.314Z,71.18
2017-08-02T06:29:01.348Z,67.8
2017-08-02T06:30:01.392Z,65.81
2017-08-02T06:31:01.433Z,64.8
2017-08-02T06:32:01.474Z,63.95
2017-08-02T06:33:01.911Z,63.63
2017-08-02T06:34:01.957Z,64.74
2017-08-02T06:35:02.097Z,66.53
2017-08-02T06:36:02.475Z,67.83
2017-08-02T06:37:02.228Z,68.65
2017-08-02T06:38:02.549Z,70.53
2017-08-02T06:39:02.317Z,71.62
2017-08-02T06:40:03.416Z,73.05
2017-08-02T06:41:03.603Z,74.48
2017-08-02T06:42:03.331Z,75.41
2017-08-02T06:43:03.359Z,76.64
2017-08-02T06:44:03.800Z,77.28
2017-08-02T06:45:03.811Z,77.57
2017-08-02T06:46:03.807Z,78.85
2017-08-02T06:47:03.865Z,79.24
2017-08-02T06:48:03.897Z,79.43
2017-08-02T06:49:03.600Z,80.46
2017-08-02T06:50:03.979Z,80.55
2017-08-02T06:51:04.289Z,81
2017-08-02T06:52:04.299Z,81.39
2017-08-02T06:53:04.083Z,81.48
2017-08-02T06:54:04.133Z,81.58
2017-08-02T06:55:04.215Z,81.58
2017-08-02T06:56:04.260Z,81.87
2017-08-02T06:57:03.974Z,82.07
2017-08-02T06:58:04.037Z,81.97
2017-08-02T06:59:04.763Z,82.55
2017-08-02T07:00:04.538Z,82.45
2017-08-02T07:01:04.841Z,82.26
2017-08-02T07:02:04.993Z,82.07
2017-08-02T07:03:04.923Z,81.68
2017-08-02T07:04:04.959Z,81.72
2017-08-02T07:05:04.999Z,81.43
2017-08-02T07:06:05.049Z,80.55
2017-08-02T07:07:04.749Z,80.6
2017-08-02T07:08:05.209Z,79.43
2017-08-02T07:09:05.247Z,79.43
2017-08-02T07:10:05.286Z,79.28
2017-08-02T07:11:05.325Z,78.31
2017-08-02T07:12:05.376Z,78.05
2017-08-02T07:13:05.399Z,77.67
2017-08-02T07:14:05.205Z,77.76
2017-08-02T07:15:05.387Z,77.28
2017-08-02T07:16:05.608Z,75.47
2017-08-02T07:17:05.314Z,74.54
2017-08-02T07:18:05.684Z,73.56
2017-08-02T07:19:06.122Z,73.95
2017-08-02T07:20:06.307Z,74.34
2017-08-02T07:21:06.206Z,73.66
2017-08-02T07:22:05.940Z,72.37
2017-08-02T07:23:06.463Z,71.17
2017-08-02T07:24:06.137Z,69.39
2017-08-02T07:25:06.289Z,68.74
2017-08-02T07:26:06.685Z,68.55
2017-08-02T07:27:06.356Z,67.8
2017-08-02T07:28:07.198Z,66.6
2017-08-02T07:29:06.908Z,65.56
2017-08-02T07:30:07.529Z,64.51
2017-08-02T07:31:07.423Z,64.15
2017-08-02T07:32:07.133Z,63.31
2017-08-02T07:33:07.551Z,61.11
2017-08-02T07:34:07.548Z,60.19
2017-08-02T07:35:07.586Z,59.27
2017-08-02T07:36:07.626Z,58.25
2017-08-02T07:37:07.450Z,56.11
2017-08-02T07:38:07.710Z,56.21
2017-08-02T07:39:07.748Z,56.87
2017-08-02T07:40:08.169Z,57.82
2017-08-02T07:41:08.237Z,57.82
2017-08-02T07:42:08.067Z,58
2017-08-02T07:43:07.966Z,57.97
2017-08-02T07:44:08.343Z,57.67
2017-08-02T07:45:08.374Z,57.77
2017-08-02T07:46:08.095Z,58.06
2017-08-02T07:47:08.939Z,58.19
2017-08-02T07:48:09.092Z,57.97
2017-08-02T07:49:09.429Z,57.87
2017-08-02T07:50:09.473Z,56.98
2017-08-02T07:51:09.509Z,57.67
2017-08-02T07:52:09.543Z,57.97
2017-08-02T07:53:09.837Z,56.82
2017-08-02T07:54:09.874Z,55.79
2017-08-02T07:55:10.625Z,55.33
2017-08-02T07:56:10.224Z,53.78
2017-08-02T07:57:10.000Z,52.78
2017-08-02T07:58:10.053Z,50.54
2017-08-02T07:59:10.088Z,51.62
2017-08-02T08:00:09.828Z,52.38
2017-08-02T08:01:10.167Z,53.24
2017-08-02T08:02:10.216Z,52.55
2017-08-02T08:03:10.262Z,51.99
2017-08-02T08:04:10.303Z,49.99
2017-08-02T08:05:10.356Z,48.28
2017-08-02T08:06:10.057Z,46.45
2017-08-02T08:07:10.100Z,46.01
2017-08-02T08:08:10.479Z,45.85
2017-08-02T08:09:10.527Z,45.57
2017-08-02T08:10:10.567Z,45.32
2017-08-02T08:11:10.603Z,44.43
2017-08-02T08:12:10.654Z,43.96
2017-08-02T08:13:11.088Z,43.08
2017-08-02T08:14:11.533Z,42.61
2017-08-02T08:15:11.575Z,43.76
2017-08-02T08:16:11.621Z,45.65
2017-08-02T08:17:11.678Z,47.84
2017-08-02T08:18:11.712Z,49.92
2017-08-02T08:19:11.758Z,51.3
2017-08-02T08:20:11.864Z,53.49
2017-08-02T08:21:11.853Z,54.66
2017-08-02T08:22:11.989Z,56.54
2017-08-02T08:23:11.942Z,56.68
2017-08-02T08:24:12.264Z,57.7
2017-08-02T08:25:12.023Z,59.14
2017-08-02T08:26:12.504Z,59.77
2017-08-02T08:27:12.695Z,60.71
2017-08-02T08:28:12.591Z,60.74
2017-08-02T08:29:12.644Z,60.96
2017-08-02T08:30:12.690Z,61.04
2017-08-02T08:31:12.388Z,62.21
2017-08-02T08:32:12.756Z,62.63
2017-08-02T08:33:12.808Z,63.21
2017-08-02T08:34:12.844Z,64.06
2017-08-02T08:35:12.891Z,64.52
2017-08-02T08:36:12.926Z,65.56
2017-08-02T08:37:12.968Z,65.92
2017-08-02T08:38:13.047Z,66.41
2017-08-02T08:39:13.052Z,67.25
2017-08-02T08:40:13.129Z,67.57
2017-08-02T08:41:13.146Z,67.76
2017-08-02T08:42:13.193Z,68.12
2017-08-02T08:43:13.216Z,68.7
2017-08-02T08:44:13.261Z,68.8
2017-08-02T08:45:14.081Z,68.8
2017-08-02T08:46:13.716Z,69.19
2017-08-02T08:47:13.828Z,68.6
2017-08-02T08:48:14.198Z,68.41
2017-08-02T08:49:14.247Z,67.67
2017-08-02T08:50:14.280Z,67.02
2017-08-02T08:51:14.324Z,65.4
2017-08-02T08:52:14.361Z,63.74
2017-08-02T08:53:14.397Z,62.82
2017-08-02T08:54:14.443Z,61.72
2017-08-02T08:55:14.154Z,60.99
2017-08-02T08:56:14.530Z,58.51
2017-08-02T08:57:14.580Z,57.71
2017-08-02T08:58:14.613Z,55.02
2017-08-02T08:59:14.653Z,52.28
2017-08-02T09:00:14.689Z,50.14
2017-08-02T09:01:14.816Z,48.83
2017-08-02T09:02:14.653Z,46.97
2017-08-02T09:03:15.426Z,46.05
2017-08-02T09:04:15.892Z,43.74
2017-08-02T09:05:15.606Z,42.71
2017-08-02T09:06:15.969Z,40.98
2017-08-02T09:07:16.381Z,39.42
2017-08-02T09:08:16.430Z,38.78
2017-08-02T09:09:16.147Z,38.32
2017-08-02T09:10:16.563Z,38.04
2017-08-02T09:11:16.597Z,37.27
2017-08-02T09:12:16.693Z,36.9
2017-08-02T09:13:17.350Z,36.43
2017-08-02T09:14:17.120Z,36.73
2017-08-02T09:15:16.928Z,36.43
2017-08-02T09:16:17.354Z,36.78
2017-08-02T09:17:18.145Z,37.7
2017-08-02T09:18:18.571Z,39.12
2017-08-02T09:19:18.630Z,40.74
2017-08-02T09:20:18.666Z,42.74
2017-08-02T09:21:19.104Z,44.27
2017-08-02T09:22:18.894Z,45.68
2017-08-02T09:23:19.310Z,45.84
2017-08-02T09:24:19.686Z,46.22
2017-08-02T09:25:19.725Z,46.81
2017-08-02T09:26:19.787Z,47.38
2017-08-02T09:27:19.810Z,47.63
2017-08-02T09:28:19.854Z,48.66
2017-08-02T09:29:19.909Z,48.94
2017-08-02T09:30:20.062Z,48.83
2017-08-02T09:31:19.768Z,48.17
2017-08-02T09:32:19.961Z,48.17
2017-08-02T09:33:20.508Z,47.68
2017-08-02T09:34:20.988Z,47.58
2017-08-02T09:35:21.529Z,47.19
2017-08-02T09:36:21.200Z,46.72
2017-08-02T09:37:21.652Z,46
2017-08-02T09:38:21.697Z,44.48
2017-08-02T09:39:22.147Z,44.05
2017-08-02T09:40:22.183Z,42.63
2017-08-02T09:41:22.245Z,41.09
2017-08-02T09:42:22.282Z,39.89
2017-08-02T09:43:22.332Z,38.76
2017-08-02T09:44:22.378Z,37.44
2017-08-02T09:45:22.418Z,35.1
2017-08-02T09:46:22.559Z,34.93
2017-08-02T09:47:23.321Z,35.06
2017-08-02T09:48:23.372Z,34.09
2017-08-02T09:49:23.104Z,34.61
2017-08-02T09:50:23.510Z,34.61
2017-08-02T09:51:23.187Z,35.46
2017-08-02T09:52:23.640Z,35.31
2017-08-02T09:53:23.687Z,35.18
2017-08-02T09:54:23.766Z,35.54
2017-08-02T09:55:23.910Z,36.59
2017-08-02T09:56:24.363Z,37.34
2017-08-02T09:57:24.115Z,38.77
2017-08-02T09:58:24.579Z,39.23
2017-08-02T09:59:24.890Z,39.98
2017-08-02T10:00:24.666Z,39.93
2017-08-02T10:01:24.780Z,40.78
2017-08-02T10:02:24.922Z,40.41
2017-08-02T10:03:24.645Z,39.06
2017-08-02T10:04:25.099Z,38.7
2017-08-02T10:05:25.196Z,39.51
2017-08-02T10:06:24.864Z,40.05
2017-08-02T10:07:25.237Z,41.87
2017-08-02T10:08:24.959Z,43.05
2017-08-02T10:09:25.737Z,43.35
2017-08-02T10:10:25.450Z,43.07
2017-08-02T10:11:25.500Z,42.4
2017-08-02T10:12:25.966Z,42.35
2017-08-02T10:13:26.010Z,41.12
2017-08-02T10:14:26.045Z,39.51
2017-08-02T10:15:25.864Z,38.29
2017-08-02T10:16:26.629Z,37.55
2017-08-02T10:17:26.748Z,36.63
2017-08-02T10:18:26.792Z,36.34
2017-08-02T10:19:26.835Z,35.76
2017-08-02T10:20:26.884Z,36.1
2017-08-02T10:21:26.608Z,35.49
2017-08-02T10:22:27.011Z,35.69
2017-08-02T10:23:27.131Z,35.51
2017-08-02T10:24:27.587Z,34.43
2017-08-02T10:25:27.636Z,34.44
2017-08-02T10:26:27.680Z,34.34
2017-08-02T10:27:27.729Z,34.43
2017-08-02T10:28:27.769Z,34.91
2017-08-02T10:29:27.821Z,35.58
2017-08-02T10:30:27.867Z,36.52
2017-08-02T10:31:27.581Z,37.17
2017-08-02T10:32:28.365Z,38.87
2017-08-02T10:33:28.411Z,39.61
2017-08-02T10:34:28.459Z,40.47
2017-08-02T10:35:28.505Z,41.31
2017-08-02T10:36:28.544Z,41.81
2017-08-02T10:37:28.593Z,40.84
2017-08-02T10:38:28.636Z,40.28
2017-08-02T10:39:28.362Z,39.54
2017-08-02T10:40:28.803Z,39.11
2017-08-02T10:41:28.848Z,39.31
2017-08-02T10:42:28.963Z,40.34
2017-08-02T10:43:29.330Z,41.47
2017-08-02T10:44:29.378Z,42.46
2017-08-02T10:45:29.149Z,44.58
2017-08-02T10:46:29.521Z,45.87
2017-08-02T10:47:29.569Z,47.06
2017-08-02T10:48:29.621Z,48.37
2017-08-02T10:49:29.661Z,49.6
2017-08-02T10:50:29.699Z,50.34
2017-08-02T10:51:29.739Z,51.66
2017-08-02T10:52:29.794Z,53.28
2017-08-02T10:53:29.829Z,54.3
2017-08-02T10:54:29.543Z,55.65
2017-08-02T10:55:29.911Z,56.76
2017-08-02T10:56:29.957Z,57.62
2017-08-02T10:57:30.002Z,58.76
2017-08-02T10:58:30.043Z,59.7
2017-08-02T10:59:30.499Z,59.8
2017-08-02T11:00:30.530Z,60.16
2017-08-02T11:01:30.582Z,61.04
2017-08-02T11:02:30.617Z,61.04
2017-08-02T11:03:30.657Z,60.94
2017-08-02T11:04:30.701Z,61.99
2017-08-02T11:05:30.740Z,61.99
2017-08-02T11:06:30.784Z,62.05
2017-08-02T11:07:31.197Z,62.63
2017-08-02T11:08:31.244Z,62.63
2017-08-02T11:09:31.284Z,61.86
2017-08-02T11:10:31.325Z,61.43
2017-08-02T11:11:31.781Z,60.68
2017-08-02T11:12:31.820Z,59.86
2017-08-02T11:13:31.534Z,58.81
2017-08-02T11:14:31.574Z,58.16
2017-08-02T11:15:32.014Z,56.92
2017-08-02T11:16:32.056Z,55.99
2017-08-02T11:17:32.103Z,55.14
2017-08-02T11:18:31.811Z,53.99
2017-08-02T11:19:32.581Z,53.82
2017-08-02T11:20:32.616Z,53.53
2017-08-02T11:21:32.661Z,52.5
2017-08-02T11:22:32.371Z,51.17
2017-08-02T11:23:32.740Z,49.58
2017-08-02T11:24:32.787Z,47.31
2017-08-02T11:25:32.823Z,45.82
2017-08-02T11:26:32.877Z,43.83
2017-08-02T11:27:32.920Z,42.13
2017-08-02T11:28:33.075Z,41.09
2017-08-02T11:29:33.115Z,41.67
2017-08-02T11:30:33.152Z,41.87
2017-08-02T11:31:33.196Z,41.69
2017-08-02T11:32:33.235Z,41.39
2017-08-02T11:33:33.686Z,40.41
2017-08-02T11:34:33.730Z,41.28
2017-08-02T11:35:33.763Z,42.13
2017-08-02T11:36:33.813Z,42.49
2017-08-02T11:37:33.843Z,43.26
2017-08-02T11:38:34.330Z,43.85
2017-08-02T11:39:34.427Z,44.74
2017-08-02T11:40:34.370Z,45.01
2017-08-02T11:41:34.408Z,45.59
2017-08-02T11:42:34.513Z,45.74
2017-08-02T11:43:34.934Z,46.78
2017-08-02T11:44:35.228Z,47.6
2017-08-02T11:45:35.069Z,48.66
2017-08-02T11:46:35.069Z,48.35
2017-08-02T11:47:35.762Z,49.5
2017-08-02T11:48:35.792Z,49.77
2017-08-02T11:49:36.128Z,49.95
2017-08-02T11:50:35.881Z,50.24
2017-08-02T11:51:35.915Z,51.2
2017-08-02T11:52:35.962Z,51.37
2017-08-02T11:53:36.089Z,50.66
2017-08-02T11:54:36.132Z,52.18
2017-08-02T11:55:35.855Z,53.33
2017-08-02T11:56:36.227Z,54.09
2017-08-02T11:57:36.254Z,54.75
2017-08-02T11:58:36.293Z,55.73
2017-08-02T11:59:36.751Z,56.26
2017-08-02T12:00:36.792Z,56.82
2017-08-02T12:01:36.991Z,58.13
2017-08-02T12:02:37.495Z,58.81
2017-08-02T12:03:37.532Z,59.77
2017-08-02T12:04:37.965Z,59.47
2017-08-02T12:05:38.004Z,58.59
2017-08-02T12:06:37.719Z,58.98
2017-08-02T12:07:38.485Z,59.28
2017-08-02T12:08:38.530Z,59.86
2017-08-02T12:09:38.569Z,59.08
2017-08-02T12:10:38.615Z,58.89
2017-08-02T12:11:38.651Z,58.66
2017-08-02T12:12:38.687Z,58.76
2017-08-02T12:13:38.729Z,59.05
2017-08-02T12:14:38.783Z,59.25
2017-08-02T12:15:39.247Z,59.54
2017-08-02T12:16:39.290Z,59.83
2017-08-02T12:17:39.335Z,59.54
2017-08-02T12:18:39.368Z,59.54
2017-08-02T12:19:39.415Z,59.83
2017-08-02T12:20:39.457Z,59.83
2017-08-02T12:21:39.493Z,59.44
2017-08-02T12:22:39.531Z,59.74
2017-08-02T12:23:39.574Z,59.05
2017-08-02T12:24:39.289Z,59.64
2017-08-02T12:25:39.719Z,59.38
2017-08-02T12:26:39.429Z,59.64
2017-08-02T12:27:39.810Z,59.67
2017-08-02T12:28:39.839Z,60.06
2017-08-02T12:29:39.887Z,59.28
2017-08-02T12:30:39.922Z,58.52
2017-08-02T12:31:39.973Z,58.06
2017-08-02T12:32:39.678Z,58.23
2017-08-02T12:33:40.040Z,58.16
2017-08-02T12:34:40.088Z,57.97
2017-08-02T12:35:40.133Z,58.06
2017-08-02T12:36:40.171Z,58.06
2017-08-02T12:37:40.214Z,57.97
2017-08-02T12:38:40.248Z,57.77
2017-08-02T12:39:40.295Z,58.03
2017-08-02T12:40:40.416Z,58.13
2017-08-02T12:41:41.166Z,58.81
2017-08-02T12:42:41.585Z,58.72
2017-08-02T12:43:41.632Z,59.79
2017-08-02T12:44:41.335Z,59.89
2017-08-02T12:45:41.772Z,59.79
2017-08-02T12:46:42.210Z,59.4
2017-08-02T12:47:42.251Z,60.06
2017-08-02T12:48:42.284Z,59.38
2017-08-02T12:49:42.709Z,59.93
2017-08-02T12:50:42.510Z,60.03
2017-08-02T12:51:43.259Z,60.35
2017-08-02T12:52:43.313Z,60.84
2017-08-02T12:53:43.744Z,60.77
2017-08-02T12:54:43.458Z,60.28
2017-08-02T12:55:43.844Z,59.99